Time;durP1;ratioP1;P1;durP2;ratioP2;P2;SDS_P1;SDS_P2;PMS_P1;PMS_P2;Temp;Humidity;BMP_temperature;BMP_pressure;BME280_temperature;BME280_humidity;BME280_pressure;Samples;Min_cycle;Max_cycle;Signal;HPM_P1;HPM_P2
2021/07/18 00:01:56;;;;;;;33.20;19.33;;;18.70;99.90;;;;;;5034005;28;21222;-53
2021/07/18 00:04:24;;;;;;;29.43;19.80;;;18.70;99.90;;;;;;5035386;28;20453;-53
2021/07/18 00:06:51;;;;;;;32.47;20.77;;;18.60;99.90;;;;;;5034283;28;20456;-53
2021/07/18 00:09:18;;;;;;;30.53;20.47;;;18.60;99.90;;;;;;5035208;28;20445;-53
2021/07/18 00:11:45;;;;;;;38.93;22.50;;;18.60;99.90;;;;;;5062390;22;20492;-56
2021/07/18 00:14:12;;;;;;;38.57;21.37;;;18.60;99.90;;;;;;5072345;28;20505;-56
2021/07/18 00:16:40;;;;;;;35.87;20.17;;;18.70;99.90;;;;;;5059628;28;20872;-56
2021/07/18 00:19:07;;;;;;;31.73;20.70;;;18.60;99.90;;;;;;5070199;28;20502;-56
2021/07/18 00:21:35;;;;;;;37.03;23.00;;;18.70;99.90;;;;;;5058607;28;20459;-56
2021/07/18 00:24:03;;;;;;;39.63;22.63;;;18.70;99.90;;;;;;5055191;28;20509;-56
2021/07/18 00:26:30;;;;;;;35.50;22.90;;;18.70;99.90;;;;;;5057004;28;21010;-56
2021/07/18 00:28:57;;;;;;;37.97;23.70;;;18.70;99.90;;;;;;5074569;28;20478;-56
2021/07/18 00:31:24;;;;;;;37.57;23.17;;;18.70;99.90;;;;;;5054314;28;20999;-56
2021/07/18 00:33:51;;;;;;;37.50;23.23;;;18.70;99.90;;;;;;5054105;28;20937;-56
2021/07/18 00:36:19;;;;;;;39.73;23.87;;;18.70;99.90;;;;;;5060804;28;20450;-56
2021/07/18 00:38:48;;;;;;;37.00;23.37;;;18.60;99.90;;;;;;5061856;28;20492;-55
2021/07/18 00:41:14;;;;;;;38.70;23.27;;;18.60;99.90;;;;;;5072749;28;20500;-56
2021/07/18 00:43:41;;;;;;;31.37;21.87;;;18.70;99.90;;;;;;5074078;28;20840;-56
2021/07/18 00:46:08;;;;;;;36.37;22.90;;;18.70;99.90;;;;;;5073099;28;20455;-56
2021/07/18 00:48:36;;;;;;;35.17;22.63;;;18.90;99.90;;;;;;5054142;28;20549;-56
2021/07/18 00:51:03;;;;;;;34.70;22.37;;;18.90;99.90;;;;;;5054265;28;20439;-56
2021/07/18 00:53:31;;;;;;;37.33;21.53;;;18.90;99.90;;;;;;5054912;28;20505;-56
2021/07/18 00:55:59;;;;;;;35.53;23.30;;;18.90;99.90;;;;;;5061144;28;20453;-56
2021/07/18 00:58:30;;;;;;;40.27;22.13;;;18.80;99.90;;;;;;5068147;28;20447;-56
2021/07/18 01:00:58;;;;;;;35.03;22.70;;;18.80;99.90;;;;;;5054261;28;20538;-56
2021/07/18 01:03:26;;;;;;;38.10;23.47;;;18.80;99.90;;;;;;5053578;28;20474;-56
2021/07/18 01:05:53;;;;;;;36.23;22.63;;;18.70;99.90;;;;;;5053950;28;20452;-56
2021/07/18 01:08:20;;;;;;;34.60;22.37;;;18.70;99.90;;;;;;5063373;28;20471;-55
2021/07/18 01:10:47;;;;;;;35.90;22.07;;;18.70;99.90;;;;;;5058161;28;20509;-55
2021/07/18 01:13:16;;;;;;;36.83;22.53;;;18.70;99.90;;;;;;5060999;28;20484;-56
2021/07/18 01:15:43;;;;;;;33.47;21.33;;;18.70;99.90;;;;;;5053707;28;21003;-56
2021/07/18 01:18:10;;;;;;;36.93;24.20;;;18.80;99.90;;;;;;5063428;28;20451;-56
2021/07/18 01:20:38;;;;;;;37.27;21.70;;;18.70;99.90;;;;;;5073685;28;20451;-56
2021/07/18 01:23:07;;;;;;;36.13;22.30;;;18.80;99.90;;;;;;5064086;28;20472;-56
2021/07/18 01:25:34;;;;;;;34.07;22.53;;;18.80;99.90;;;;;;5054294;28;20447;-56
2021/07/18 01:28:02;;;;;;;36.23;22.17;;;18.70;99.90;;;;;;5060150;28;20479;-55
2021/07/18 01:30:29;;;;;;;31.03;21.00;;;18.80;99.90;;;;;;5071969;28;20512;-55
2021/07/18 01:32:56;;;;;;;30.93;20.13;;;18.80;99.90;;;;;;5053215;28;20470;-56
2021/07/18 01:35:23;;;;;;;35.03;21.43;;;18.80;99.90;;;;;;5053485;28;20879;-56
2021/07/18 01:37:51;;;;;;;37.77;21.63;;;18.80;99.90;;;;;;5053178;28;20945;-56
2021/07/18 01:40:19;;;;;;;31.37;21.13;;;18.70;99.90;;;;;;5068559;28;20435;-56
2021/07/18 01:42:46;;;;;;;34.30;21.63;;;18.80;99.90;;;;;;5068596;28;20520;-56
2021/07/18 01:45:13;;;;;;;31.20;21.10;;;18.70;99.90;;;;;;5073320;28;20496;-56
2021/07/18 01:47:41;;;;;;;35.50;21.17;;;18.70;99.90;;;;;;5066133;28;20475;-56
2021/07/18 01:50:09;;;;;;;33.40;20.67;;;18.70;99.90;;;;;;5067181;28;21007;-56
2021/07/18 01:52:36;;;;;;;33.23;20.70;;;18.80;99.90;;;;;;5068497;28;20467;-56
2021/07/18 01:55:03;;;;;;;33.87;20.43;;;18.80;99.90;;;;;;5071950;28;20496;-56
2021/07/18 01:57:31;;;;;;;33.00;20.90;;;18.80;99.90;;;;;;5054597;28;20448;-55
2021/07/18 01:59:58;;;;;;;31.90;20.50;;;18.80;99.90;;;;;;5055080;28;20936;-56
2021/07/18 02:02:25;;;;;;;34.63;20.60;;;18.80;99.90;;;;;;5055877;28;20528;-56
2021/07/18 02:04:52;;;;;;;34.17;21.23;;;18.80;99.90;;;;;;5071072;28;20455;-56
2021/07/18 02:07:19;;;;;;;31.10;19.57;;;18.80;99.90;;;;;;5070145;28;20458;-56
2021/07/18 02:09:46;;;;;;;36.90;20.20;;;18.80;99.90;;;;;;5055622;28;20464;-56
2021/07/18 02:12:13;;;;;;;31.40;20.43;;;18.80;99.90;;;;;;5060263;28;20533;-56
2021/07/18 02:14:42;;;;;;;43.47;21.40;;;18.70;99.90;;;;;;5071082;28;20507;-56
2021/07/18 02:17:09;;;;;;;30.53;20.63;;;18.70;99.90;;;;;;5068675;28;20442;-55
2021/07/18 02:19:37;;;;;;;29.10;19.13;;;18.70;99.90;;;;;;5057415;28;20452;-56
2021/07/18 02:22:04;;;;;;;31.07;17.83;;;18.80;99.90;;;;;;5052246;28;21154;-56
2021/07/18 02:24:31;;;;;;;28.67;18.77;;;18.80;99.90;;;;;;5053787;28;20518;-56
2021/07/18 02:26:58;;;;;;;23.63;16.90;;;18.80;99.90;;;;;;5070730;28;20536;-55
2021/07/18 02:29:26;;;;;;;29.07;18.03;;;18.90;99.90;;;;;;5052263;28;20479;-56
2021/07/18 02:31:54;;;;;;;25.43;17.37;;;18.90;99.90;;;;;;5065319;28;20470;-56
2021/07/18 02:34:21;;;;;;;23.50;16.70;;;18.80;99.90;;;;;;5062434;28;20497;-56
2021/07/18 02:36:48;;;;;;;31.53;17.43;;;18.80;99.90;;;;;;5057307;28;20955;-56
2021/07/18 02:39:15;;;;;;;23.23;17.77;;;18.80;99.90;;;;;;5059869;28;21777;-56
2021/07/18 02:41:42;;;;;;;27.10;16.90;;;18.90;99.90;;;;;;5064943;28;20475;-56
2021/07/18 02:44:09;;;;;;;26.93;17.57;;;18.90;99.90;;;;;;5068152;28;20510;-56
2021/07/18 02:46:37;;;;;;;27.30;16.93;;;18.80;99.90;;;;;;5071270;28;20450;-56
2021/07/18 02:49:05;;;;;;;24.23;17.43;;;18.80;99.90;;;;;;5053688;28;21000;-56
2021/07/18 02:51:33;;;;;;;26.03;16.13;;;18.80;99.90;;;;;;5052080;28;20448;-56
2021/07/18 02:54:00;;;;;;;26.40;15.93;;;18.80;99.90;;;;;;5053986;28;20444;-56
2021/07/18 02:56:27;;;;;;;25.40;14.90;;;18.80;99.90;;;;;;5061842;28;20448;-56
2021/07/18 02:58:53;;;;;;;29.43;17.30;;;18.80;99.90;;;;;;5061078;28;20440;-56
2021/07/18 03:01:20;;;;;;;20.90;15.67;;;18.80;99.90;;;;;;5053285;28;20506;-56
2021/07/18 03:03:48;;;;;;;23.87;15.87;;;18.80;99.90;;;;;;5063102;28;20451;-56
2021/07/18 03:06:16;;;;;;;23.93;16.80;;;18.80;99.90;;;;;;5064217;28;20584;-56
2021/07/18 03:08:43;;;;;;;19.37;14.60;;;18.80;99.90;;;;;;5065593;28;20855;-56
2021/07/18 03:11:10;;;;;;;18.10;14.30;;;18.80;99.90;;;;;;5051670;28;20447;-56
2021/07/18 03:13:37;;;;;;;20.67;14.37;;;18.80;99.90;;;;;;5059504;28;20474;-56
2021/07/18 03:16:04;;;;;;;21.50;15.10;;;18.80;99.90;;;;;;5061327;28;20835;-56
2021/07/18 03:18:31;;;;;;;20.17;14.20;;;18.80;99.90;;;;;;5063120;28;20496;-56
2021/07/18 03:20:58;;;;;;;21.37;14.43;;;18.80;99.90;;;;;;5070873;28;20447;-56
2021/07/18 03:23:27;;;;;;;21.30;14.87;;;18.80;99.90;;;;;;5059063;28;20468;-56
2021/07/18 03:25:54;;;;;;;23.27;14.37;;;18.80;99.90;;;;;;5052175;28;20452;-56
2021/07/18 03:28:22;;;;;;;18.47;12.80;;;18.80;99.90;;;;;;5062537;28;20475;-56
2021/07/18 03:30:50;;;;;;;19.43;13.40;;;18.80;99.90;;;;;;5069180;28;20450;-56
2021/07/18 03:33:17;;;;;;;19.33;14.57;;;18.80;99.90;;;;;;5060263;28;20992;-56
2021/07/18 03:35:44;;;;;;;20.57;13.70;;;18.80;99.90;;;;;;5056897;28;20451;-56
2021/07/18 03:38:11;;;;;;;21.83;13.03;;;18.80;99.90;;;;;;5051172;28;20493;-55
2021/07/18 03:40:39;;;;;;;17.80;12.80;;;18.80;99.90;;;;;;5051437;28;20873;-56
2021/07/18 03:43:06;;;;;;;17.93;12.90;;;18.80;99.90;;;;;;5064356;28;20463;-56
2021/07/18 03:45:33;;;;;;;21.37;13.47;;;18.80;99.90;;;;;;5071177;28;20450;-56
2021/07/18 03:48:00;;;;;;;17.07;13.10;;;18.80;99.90;;;;;;5061249;28;20451;-56
2021/07/18 03:50:27;;;;;;;21.50;13.20;;;18.80;99.90;;;;;;5061302;28;20443;-56
2021/07/18 03:52:54;;;;;;;21.50;12.87;;;18.80;99.90;;;;;;5056018;28;21050;-56
2021/07/18 03:55:21;;;;;;;20.17;13.50;;;18.80;99.90;;;;;;5061770;28;20952;-56
2021/07/18 03:57:50;;;;;;;17.47;12.90;;;18.80;99.90;;;;;;5071424;28;20447;-56
2021/07/18 04:00:17;;;;;;;21.57;12.70;;;18.70;99.90;;;;;;5069353;28;21023;-56
2021/07/18 04:02:45;;;;;;;18.40;11.77;;;18.70;99.90;;;;;;5059622;28;20470;-56
2021/07/18 04:05:12;;;;;;;18.80;12.77;;;18.70;99.90;;;;;;5071120;28;20531;-56
2021/07/18 04:07:39;;;;;;;17.23;11.73;;;18.70;99.90;;;;;;5059863;28;20501;-55
2021/07/18 04:10:07;;;;;;;17.90;11.70;;;18.80;99.90;;;;;;5063195;28;20483;-56
2021/07/18 04:12:34;;;;;;;17.03;11.00;;;18.80;99.90;;;;;;5064181;28;20539;-56
2021/07/18 04:15:03;;;;;;;17.80;11.23;;;18.70;99.90;;;;;;5070958;28;20508;-56
2021/07/18 04:17:30;;;;;;;18.87;13.10;;;18.70;99.90;;;;;;5064502;28;20512;-56
2021/07/18 04:19:57;;;;;;;20.10;13.00;;;18.70;99.90;;;;;;5070843;28;20439;-56
2021/07/18 04:22:24;;;;;;;21.50;13.00;;;18.80;99.90;;;;;;5070880;28;20902;-57
2021/07/18 04:24:51;;;;;;;17.90;11.93;;;18.70;99.90;;;;;;5060446;28;20447;-57
2021/07/18 04:27:19;;;;;;;22.83;12.90;;;18.70;99.90;;;;;;5055350;28;20816;-57
2021/07/18 04:29:46;;;;;;;21.80;12.73;;;18.70;99.90;;;;;;5050810;28;21046;-57
2021/07/18 04:32:14;;;;;;;18.67;12.10;;;18.70;99.90;;;;;;5055102;28;20472;-57
2021/07/18 04:34:43;;;;;;;23.10;12.73;;;18.70;99.90;;;;;;5070815;28;20500;-58
2021/07/18 04:37:10;;;;;;;21.30;13.30;;;18.70;99.90;;;;;;5062133;28;20484;-58
2021/07/18 04:39:37;;;;;;;15.40;12.03;;;18.70;99.90;;;;;;5063658;28;20504;-57
2021/07/18 04:42:06;;;;;;;16.37;10.93;;;18.70;99.90;;;;;;5058631;28;20519;-58
2021/07/18 04:44:33;;;;;;;18.73;11.80;;;18.70;99.90;;;;;;5062066;28;21198;-58
2021/07/18 04:47:04;;;;;;;17.57;11.93;;;18.70;99.90;;;;;;5058396;28;20444;-58
2021/07/18 04:49:32;;;;;;;17.47;11.47;;;18.70;99.90;;;;;;5058874;28;20558;-57
2021/07/18 04:52:02;;;;;;;16.27;11.50;;;18.70;99.90;;;;;;5054015;28;20529;-58
2021/07/18 04:54:29;;;;;;;17.13;11.20;;;18.70;99.90;;;;;;5062211;28;20508;-57
2021/07/18 04:56:56;;;;;;;17.13;10.60;;;18.70;99.90;;;;;;5064900;28;20443;-58
2021/07/18 04:59:23;;;;;;;17.10;10.00;;;18.70;99.90;;;;;;5074232;28;20508;-57
2021/07/18 05:01:50;;;;;;;17.43;12.20;;;18.70;99.90;;;;;;5055466;28;20472;-57
2021/07/18 05:04:17;;;;;;;16.70;11.80;;;18.70;99.90;;;;;;5062602;28;20449;-58
2021/07/18 05:06:46;;;;;;;14.73;10.70;;;18.70;99.90;;;;;;5062251;28;20458;-58
2021/07/18 05:09:13;;;;;;;17.40;11.60;;;18.70;99.90;;;;;;5069678;28;20549;-58
2021/07/18 05:11:40;;;;;;;17.00;10.60;;;18.70;99.90;;;;;;5053454;28;20946;-58
2021/07/18 05:14:07;;;;;;;15.73;10.67;;;18.70;99.90;;;;;;5053506;28;20444;-58
2021/07/18 05:16:34;;;;;;;14.87;10.70;;;18.70;99.90;;;;;;5053641;28;20510;-58
2021/07/18 05:19:01;;;;;;;14.10;10.77;;;18.70;99.90;;;;;;5053687;28;20451;-57
2021/07/18 05:21:28;;;;;;;13.00;9.80;;;18.70;99.90;;;;;;5058779;28;20456;-58
2021/07/18 05:23:56;;;;;;;19.00;10.63;;;18.80;99.90;;;;;;5053516;28;20448;-58
2021/07/18 05:26:24;;;;;;;18.73;9.03;;;18.70;99.90;;;;;;5053367;28;21003;-58
2021/07/18 05:28:51;;;;;;;14.73;9.47;;;18.80;99.90;;;;;;5053453;28;20476;-57
2021/07/18 05:31:18;;;;;;;15.70;9.83;;;18.80;99.90;;;;;;5071649;28;20448;-57
2021/07/18 05:33:45;;;;;;;14.17;9.63;;;18.80;99.90;;;;;;5069671;28;21062;-57
2021/07/18 05:36:15;;;;;;;15.10;9.90;;;18.80;99.90;;;;;;5054042;28;20952;-57
2021/07/18 05:38:42;;;;;;;12.60;9.50;;;18.80;99.90;;;;;;5054046;28;20459;-57
2021/07/18 05:41:10;;;;;;;12.27;8.80;;;18.80;99.90;;;;;;5077152;28;20511;-58
2021/07/18 05:43:37;;;;;;;11.03;9.07;;;18.80;99.90;;;;;;5091294;28;20523;-58
2021/07/18 05:46:04;;;;;;;14.03;8.57;;;18.80;99.90;;;;;;5086979;28;21138;-58
2021/07/18 05:48:32;;;;;;;14.33;8.10;;;18.80;99.90;;;;;;5072738;28;20492;-58
2021/07/18 05:50:59;;;;;;;15.40;8.40;;;18.80;99.90;;;;;;5072721;28;20474;-58
2021/07/18 05:53:25;;;;;;;10.23;7.60;;;18.80;99.90;;;;;;5072841;28;20521;-57
2021/07/18 05:55:52;;;;;;;11.20;7.60;;;18.90;99.90;;;;;;5073144;28;20504;-57
2021/07/18 05:58:21;;;;;;;12.67;8.10;;;18.90;99.90;;;;;;5058721;28;20877;-58
2021/07/18 06:00:48;;;;;;;15.17;7.60;;;18.90;99.90;;;;;;5074640;28;20948;-57
2021/07/18 06:03:15;;;;;;;13.70;7.43;;;18.90;99.90;;;;;;5072534;28;20470;-58
2021/07/18 06:05:42;;;;;;;11.83;6.93;;;18.90;99.90;;;;;;5061523;28;20934;-58
2021/07/18 06:08:10;;;;;;;10.70;6.77;;;19.00;99.90;;;;;;5053000;28;20443;-58
2021/07/18 06:10:37;;;;;;;10.77;6.90;;;19.10;99.90;;;;;;5052264;28;21281;-58
2021/07/18 06:13:04;;;;;;;9.00;6.80;;;19.20;99.90;;;;;;5052190;28;20479;-58
2021/07/18 06:15:33;;;;;;;14.33;6.03;;;19.20;99.90;;;;;;5053134;28;20456;-58
2021/07/18 06:18:00;;;;;;;11.23;7.00;;;19.20;99.90;;;;;;5064920;28;20443;-58
2021/07/18 06:20:27;;;;;;;9.27;6.10;;;19.10;99.90;;;;;;5072821;28;20527;-57
2021/07/18 06:22:54;;;;;;;11.27;6.27;;;19.20;99.90;;;;;;5072282;28;20471;-58
2021/07/18 06:25:21;;;;;;;7.67;5.87;;;19.20;99.90;;;;;;5072389;28;20937;-58
2021/07/18 06:27:48;;;;;;;8.60;6.60;;;19.20;99.90;;;;;;5072254;28;20451;-58
2021/07/18 06:30:16;;;;;;;8.13;6.20;;;19.10;99.90;;;;;;5071253;28;20497;-58
2021/07/18 06:32:45;;;;;;;9.50;6.40;;;19.10;99.90;;;;;;5052252;28;20525;-58
2021/07/18 06:35:12;;;;;;;11.57;8.63;;;19.20;99.90;;;;;;5052320;28;20942;-57
2021/07/18 06:37:39;;;;;;;11.63;8.30;;;19.40;99.90;;;;;;5052322;28;20448;-58
2021/07/18 06:40:08;;;;;;;13.00;6.80;;;19.30;99.90;;;;;;5052109;28;20502;-57
2021/07/18 06:42:35;;;;;;;9.87;6.10;;;19.30;99.90;;;;;;5052177;28;20471;-58
2021/07/18 06:45:02;;;;;;;12.60;6.50;;;19.30;99.90;;;;;;5052206;28;20451;-58
2021/07/18 06:47:29;;;;;;;10.13;6.50;;;19.30;99.90;;;;;;5052648;28;20459;-58
2021/07/18 06:49:57;;;;;;;11.27;6.70;;;19.50;99.90;;;;;;5052089;28;20483;-57
2021/07/18 06:52:25;;;;;;;11.70;6.63;;;19.50;99.90;;;;;;5051716;28;20471;-58
2021/07/18 06:54:52;;;;;;;13.20;8.00;;;19.60;99.90;;;;;;5058458;28;20442;-58
2021/07/18 06:57:19;;;;;;;10.40;7.30;;;19.50;99.90;;;;;;5071488;28;20456;-58
2021/07/18 06:59:47;;;;;;;10.13;6.93;;;19.40;99.90;;;;;;5062712;28;20447;-58
2021/07/18 07:02:14;;;;;;;9.20;6.63;;;19.50;99.90;;;;;;5067104;28;20521;-57
2021/07/18 07:04:41;;;;;;;8.23;6.30;;;19.50;99.90;;;;;;5080079;28;20510;-58
2021/07/18 07:07:09;;;;;;;10.53;7.17;;;19.50;99.90;;;;;;5082279;28;20451;-57
2021/07/18 07:09:36;;;;;;;8.53;5.90;;;19.60;99.90;;;;;;5078392;28;21004;-57
2021/07/18 07:12:04;;;;;;;11.53;7.13;;;19.60;99.90;;;;;;5066915;28;20481;-58
2021/07/18 07:14:31;;;;;;;13.93;6.90;;;19.70;99.90;;;;;;5051927;28;20520;-58
2021/07/18 07:16:58;;;;;;;11.00;6.90;;;19.70;99.90;;;;;;5051746;28;20443;-57
2021/07/18 07:19:25;;;;;;;11.87;6.93;;;19.70;99.90;;;;;;5052426;28;20443;-57
2021/07/18 07:21:52;;;;;;;8.30;6.30;;;19.90;99.90;;;;;;5062033;28;20478;-58
2021/07/18 07:24:21;;;;;;;9.00;6.60;;;20.10;99.90;;;;;;5076006;28;20914;-58
2021/07/18 07:26:48;;;;;;;8.83;6.33;;;20.00;99.90;;;;;;5088984;28;20460;-57
2021/07/18 07:29:15;;;;;;;10.60;7.13;;;20.40;99.90;;;;;;5051494;28;20867;-57
2021/07/18 07:31:43;;;;;;;12.53;7.10;;;20.50;99.90;;;;;;5055730;28;21057;-58
2021/07/18 07:34:10;;;;;;;9.43;7.07;;;20.40;99.90;;;;;;5060016;28;20470;-57
2021/07/18 07:36:36;;;;;;;6.90;5.97;;;20.40;99.90;;;;;;5066474;28;20443;-57
2021/07/18 07:39:05;;;;;;;10.20;7.47;;;20.40;99.90;;;;;;5057739;28;20456;-58
2021/07/18 07:41:33;;;;;;;7.77;6.53;;;20.80;99.90;;;;;;5060137;28;20507;-57
2021/07/18 07:44:00;;;;;;;10.13;7.27;;;21.10;99.90;;;;;;5051328;28;20452;-57
2021/07/18 07:46:28;;;;;;;9.07;7.43;;;21.00;99.90;;;;;;5074109;28;20455;-57
2021/07/18 07:48:55;;;;;;;9.77;6.73;;;20.50;99.90;;;;;;5068934;28;20889;-58
2021/07/18 07:51:22;;;;;;;11.13;6.97;;;20.40;99.90;;;;;;5083208;28;20477;-58
2021/07/18 07:53:50;;;;;;;10.27;7.13;;;20.10;99.90;;;;;;5062397;28;20471;-57
2021/07/18 07:56:18;;;;;;;10.70;7.20;;;20.20;99.90;;;;;;5069582;28;20826;-57
2021/07/18 07:58:47;;;;;;;9.60;6.80;;;20.30;99.90;;;;;;5059809;28;20887;-58
2021/07/18 08:01:14;;;;;;;8.93;7.20;;;20.40;99.90;;;;;;5065157;28;20523;-58
2021/07/18 08:03:41;;;;;;;7.70;6.83;;;20.60;99.90;;;;;;5058423;28;20488;-57
2021/07/18 08:06:08;;;;;;;11.50;6.83;;;20.80;99.90;;;;;;5080600;28;20507;-57
2021/07/18 08:08:35;;;;;;;9.50;6.67;;;20.90;99.90;;;;;;5073155;28;20535;-58
2021/07/18 08:11:02;;;;;;;7.10;6.20;;;20.80;99.90;;;;;;5078426;28;20521;-57
2021/07/18 08:13:29;;;;;;;11.50;6.97;;;20.60;99.90;;;;;;5080426;28;20497;-57
2021/07/18 08:15:58;;;;;;;10.00;6.10;;;20.80;99.90;;;;;;5076565;28;20517;-58
2021/07/18 08:18:25;;;;;;;8.53;5.60;;;21.00;99.90;;;;;;5076944;28;20458;-57
2021/07/18 08:20:52;;;;;;;10.73;6.30;;;20.90;99.90;;;;;;5081412;28;20462;-57
2021/07/18 08:23:19;;;;;;;8.20;6.40;;;21.00;99.90;;;;;;5079623;28;20860;-56
2021/07/18 08:25:46;;;;;;;10.10;5.17;;;21.20;99.90;;;;;;5073812;28;20454;-57
2021/07/18 08:28:14;;;;;;;9.82;6.38;;;21.30;99.90;;;;;;5054736;28;20509;-59
2021/07/18 08:30:42;;;;;;;8.13;5.90;;;21.60;99.90;;;;;;5083520;28;20228;-58
2021/07/18 08:33:11;;;;;;;9.83;6.20;;;21.60;99.90;;;;;;5059277;28;20490;-59
2021/07/18 08:35:38;;;;;;;9.57;5.93;;;21.70;99.90;;;;;;5074874;28;21045;-59
2021/07/18 08:38:05;;;;;;;6.40;5.70;;;21.40;99.90;;;;;;5076476;28;20449;-59
2021/07/18 08:40:35;;;;;;;8.63;6.07;;;21.10;99.90;;;;;;5058121;28;20458;-58
2021/07/18 08:43:02;;;;;;;8.73;6.20;;;21.30;99.90;;;;;;5069031;28;20561;-58
2021/07/18 08:45:30;;;;;;;6.40;5.80;;;21.30;99.90;;;;;;5078599;28;20531;-59
2021/07/18 08:47:57;;;;;;;10.60;6.10;;;21.30;99.90;;;;;;5066276;28;20519;-58
2021/07/18 08:50:25;;;;;;;7.17;6.00;;;21.20;99.90;;;;;;5063079;28;20895;-58
2021/07/18 08:52:55;;;;;;;12.03;7.43;;;21.20;99.90;;;;;;5071006;28;20908;-59
2021/07/18 08:55:23;;;;;;;14.07;6.37;;;21.30;99.90;;;;;;5047714;28;20896;-58
2021/07/18 08:57:51;;;;;;;12.20;5.60;;;21.30;99.90;;;;;;5056972;28;20459;-59
2021/07/18 09:00:20;;;;;;;9.07;6.30;;;21.60;99.90;;;;;;5053351;28;20460;-60
2021/07/18 09:02:47;;;;;;;8.03;5.30;;;21.90;99.90;;;;;;5052494;28;20916;-60
2021/07/18 09:05:14;;;;;;;14.00;5.40;;;21.80;99.90;;;;;;5049221;28;20437;-60
2021/07/18 09:07:48;;;;;;;7.10;6.00;;;22.00;99.90;;;;;;5051581;28;20489;-58
2021/07/18 09:10:20;;;;;;;6.60;5.30;;;21.90;99.90;;;;;;5049390;28;20484;-59
2021/07/18 09:13:02;;;;;;;10.80;5.40;;;21.70;99.90;;;;;;5051201;28;20491;-58
2021/07/18 09:15:43;;;;;;;8.13;6.13;;;21.70;99.90;;;;;;5053981;28;20539;-59
2021/07/18 09:18:11;;;;;;;8.77;6.53;;;21.40;99.90;;;;;;5049624;28;20464;-59
2021/07/18 09:20:43;;;;;;;8.93;6.03;;;21.30;99.90;;;;;;5054665;28;20977;-59
2021/07/18 09:23:13;;;;;;;9.80;6.00;;;21.20;99.90;;;;;;5052755;28;20475;-59
2021/07/18 09:25:41;;;;;;;9.67;6.47;;;21.00;99.90;;;;;;5072379;28;20465;-58
2021/07/18 09:28:12;;;;;;;9.23;6.80;;;21.00;99.90;;;;;;5078487;28;20524;-58
2021/07/18 09:30:39;;;;;;;10.13;5.63;;;21.20;99.90;;;;;;5078030;28;20491;-58
2021/07/18 09:33:07;;;;;;;8.87;5.90;;;21.10;99.90;;;;;;5066981;28;20913;-58
2021/07/18 09:35:35;;;;;;;6.53;5.67;;;21.00;99.90;;;;;;5071840;28;20998;-59
2021/07/18 09:38:05;;;;;;;8.13;6.67;;;20.90;99.90;;;;;;5074648;28;20462;-57
2021/07/18 09:40:38;;;;;;;9.27;6.43;;;20.80;99.90;;;;;;5077696;28;20435;-58
2021/07/18 09:43:05;;;;;;;10.13;6.93;;;20.60;99.90;;;;;;5070449;28;20491;-59
2021/07/18 09:45:32;;;;;;;8.90;6.07;;;20.60;99.90;;;;;;5071024;28;20458;-58
2021/07/18 09:48:02;;;;;;;9.40;5.93;;;20.60;99.90;;;;;;5062228;28;20850;-59
2021/07/18 09:50:32;;;;;;;6.97;5.90;;;20.50;99.90;;;;;;5068867;28;21009;-59
2021/07/18 09:53:07;;;;;;;7.70;5.80;;;20.70;99.90;;;;;;5058312;28;20556;-59
2021/07/18 09:55:36;;;;;;;7.67;5.50;;;20.80;99.90;;;;;;5052729;28;20462;-58
2021/07/18 09:58:04;;;;;;;7.57;6.13;;;21.00;99.90;;;;;;5052498;28;20462;-59
2021/07/18 10:00:40;;;;;;;9.80;6.10;;;21.10;99.90;;;;;;5069649;28;20971;-59
2021/07/18 10:03:12;;;;;;;8.23;6.27;;;21.40;99.90;;;;;;5051012;28;20490;-59
2021/07/18 10:05:39;;;;;;;6.53;5.73;;;21.40;99.90;;;;;;5050448;28;20490;-58
2021/07/18 10:08:07;;;;;;;7.70;6.03;;;21.50;99.90;;;;;;5049919;28;20510;-58
2021/07/18 10:10:37;;;;;;;8.73;5.90;;;21.50;99.90;;;;;;5053449;28;20483;-60
2021/07/18 10:13:05;;;;;;;9.53;5.93;;;21.80;99.90;;;;;;5051120;28;20491;-59
2021/07/18 10:15:33;;;;;;;7.43;6.20;;;21.70;99.90;;;;;;5052287;28;20977;-58
2021/07/18 10:18:01;;;;;;;9.87;6.20;;;21.50;99.90;;;;;;5053669;28;20466;-58
2021/07/18 10:20:28;;;;;;;6.90;5.57;;;21.40;99.90;;;;;;5049845;28;20464;-60
2021/07/18 10:22:57;;;;;;;10.90;6.30;;;21.50;99.90;;;;;;5051221;28;20479;-59
2021/07/18 10:25:26;;;;;;;7.10;5.60;;;21.70;99.90;;;;;;5059192;28;20463;-59
2021/07/18 10:27:55;;;;;;;6.78;5.40;;;21.70;99.90;;;;;;5072003;28;20528;-59
2021/07/18 10:30:23;;;;;;;8.60;5.07;;;22.10;99.90;;;;;;5070990;28;20221;-59
2021/07/18 10:32:54;;;;;;;8.20;6.10;;;22.40;99.90;;;;;;5066702;28;20481;-59
2021/07/18 10:35:23;;;;;;;8.30;5.40;;;22.50;99.90;;;;;;5083503;28;20450;-59
2021/07/18 10:37:50;;;;;;;7.93;6.03;;;22.50;99.90;;;;;;5078834;28;20491;-59
2021/07/18 10:40:21;;;;;;;12.23;6.03;;;22.20;99.90;;;;;;5084643;28;20529;-59
2021/07/18 10:42:49;;;;;;;10.40;5.57;;;22.00;99.90;;;;;;5075174;28;20574;-58
2021/07/18 10:45:19;;;;;;;6.93;5.90;;;22.00;99.90;;;;;;5075039;28;20452;-59
2021/07/18 10:48:01;;;;;;;7.30;5.70;;;21.90;99.90;;;;;;5051621;28;20455;-59
2021/07/18 10:50:47;;;;;;;7.70;6.27;;;21.80;99.90;;;;;;5070556;28;20478;-58
2021/07/18 10:53:22;;;;;;;8.47;6.00;;;22.00;99.90;;;;;;5059637;28;20507;-60
2021/07/18 10:55:50;;;;;;;8.60;5.93;;;21.90;99.90;;;;;;5065396;28;20511;-59
2021/07/18 10:58:48;;;;;;;8.03;6.00;;;21.50;99.90;;;;;;5076993;28;20522;-59
2021/07/18 11:01:46;;;;;;;7.67;5.80;;;21.50;99.90;;;;;;5069115;28;20493;-58
2021/07/18 11:04:42;;;;;;;7.43;6.53;;;21.40;99.90;;;;;;5067690;28;20462;-59
2021/07/18 11:07:25;;;;;;;9.57;5.60;;;21.40;99.90;;;;;;5074749;28;20450;-58
2021/07/18 11:09:54;;;;;;;9.80;7.10;;;21.20;99.90;;;;;;5063071;28;20467;-58
2021/07/18 11:12:26;;;;;;;9.73;7.03;;;21.00;99.90;;;;;;5067473;28;20498;-59
2021/07/18 11:14:53;;;;;;;14.27;7.60;;;20.90;99.90;;;;;;5066551;28;20474;-58
2021/07/18 11:17:30;;;;;;;16.77;7.13;;;20.70;99.90;;;;;;5071391;28;20450;-58
2021/07/18 11:20:03;;;;;;;8.90;7.60;;;20.80;99.90;;;;;;5061357;28;20464;-58
2021/07/18 11:23:00;;;;;;;9.23;7.40;;;20.60;99.90;;;;;;5066726;28;20532;-58
2021/07/18 11:25:52;;;;;;;9.00;7.40;;;21.00;99.90;;;;;;5072715;28;20482;-59
2021/07/18 11:28:39;;;;;;;15.40;8.40;;;21.10;99.90;;;;;;5069422;28;20836;-59
2021/07/18 11:31:27;;;;;;;12.10;7.43;;;21.10;99.90;;;;;;5076221;28;20569;-59
2021/07/18 11:33:57;;;;;;;7.57;6.87;;;21.20;99.90;;;;;;5075369;28;20988;-58
2021/07/18 11:36:55;;;;;;;13.63;8.60;;;21.30;99.90;;;;;;5054738;28;20941;-59
2021/07/18 11:39:24;;;;;;;8.80;7.20;;;21.50;99.90;;;;;;5068398;28;20822;-58
2021/07/18 11:41:52;;;;;;;9.77;6.80;;;21.40;99.90;;;;;;5060568;28;20554;-58
2021/07/18 11:44:23;;;;;;;8.03;6.90;;;21.50;99.90;;;;;;5053402;28;20478;-58
2021/07/18 11:46:52;;;;;;;10.00;7.40;;;21.50;99.90;;;;;;5070261;28;20909;-58
2021/07/18 11:49:25;;;;;;;10.80;7.67;;;21.40;99.90;;;;;;5072376;28;20464;-58
2021/07/18 11:51:52;;;;;;;10.03;8.00;;;21.30;99.90;;;;;;5069015;28;20995;-59
2021/07/18 11:54:20;;;;;;;12.37;7.07;;;21.10;99.90;;;;;;5057865;28;20497;-58
2021/07/18 11:56:50;;;;;;;7.77;6.87;;;21.20;99.90;;;;;;5064875;28;20487;-59
2021/07/18 11:59:20;;;;;;;12.43;7.67;;;21.30;99.90;;;;;;5063811;28;20962;-58
2021/07/18 12:01:49;;;;;;;9.40;7.57;;;21.30;99.90;;;;;;5054602;28;20571;-58
2021/07/18 12:04:19;;;;;;;8.77;6.40;;;21.20;99.90;;;;;;5070990;28;20483;-59
2021/07/18 12:06:48;;;;;;;11.03;7.00;;;21.10;99.90;;;;;;5070284;28;20482;-59
2021/07/18 12:09:17;;;;;;;9.47;6.60;;;21.10;99.90;;;;;;5063024;28;20481;-59
2021/07/18 12:11:44;;;;;;;9.63;7.47;;;21.20;99.90;;;;;;5055348;28;20499;-59
2021/07/18 12:14:13;;;;;;;10.87;7.23;;;21.20;99.90;;;;;;5065098;28;20496;-59
2021/07/18 12:16:42;;;;;;;8.33;6.73;;;21.10;99.90;;;;;;5065170;28;20537;-59
2021/07/18 12:19:09;;;;;;;16.00;7.33;;;21.20;99.90;;;;;;5059522;28;20461;-58
2021/07/18 12:21:38;;;;;;;9.10;7.00;;;21.20;99.90;;;;;;5061655;28;20598;-59
2021/07/18 12:24:20;;;;;;;8.80;6.43;;;21.10;99.90;;;;;;5069547;28;20444;-59
2021/07/18 12:26:50;;;;;;;11.70;7.00;;;21.10;99.90;;;;;;5063033;28;20882;-59
2021/07/18 12:29:17;;;;;;;7.10;6.37;;;21.20;99.90;;;;;;5054700;28;20531;-59
2021/07/18 12:31:45;;;;;;;9.77;6.80;;;21.30;99.90;;;;;;5074076;28;20482;-59
2021/07/18 12:34:14;;;;;;;11.43;7.13;;;21.20;99.90;;;;;;5061965;28;21004;-59
2021/07/18 12:36:58;;;;;;;7.90;7.10;;;21.20;99.90;;;;;;5069602;28;20450;-59
2021/07/18 12:39:29;;;;;;;18.60;7.13;;;21.20;99.90;;;;;;5061922;28;21027;-58
2021/07/18 12:41:58;;;;;;;14.30;7.27;;;21.00;99.90;;;;;;5054008;28;20601;-59
2021/07/18 12:44:27;;;;;;;9.13;7.40;;;21.10;99.90;;;;;;5060456;28;20509;-59